Service Notice

This observation station is currently unavailable due to a loss of power in the area.

Work to restore the service will be undertaken as soon as it is safe to do so.

The Bureau's national resources allow our meteorologists to produce accurate and timely forecasts and warnings in areas without observations, including for the locations around this station site. Search for forcast by town, city, post code or lat/lon here or find the location on the MetEye map.

Latest Coastal Weather Observations for Mallacoota

IDV60701

Issued at 12:32 pm EST Tuesday 7 July 2020 (issued every 10 minutes, with the page automatically refreshed every 10 minutes)

About coastal observations | Map of coastal stations | Coastal observations for VIC | Marine services | Other Formats
Station Details ID: 084084 Name: MALLACOOTA Lat: -37.60 Lon: 149.73 Height: 22.0 m
Data from the previous 72 hours. | See also: Recent months at Mallacoota
Date/Time
EST
Wind Sea
Height
m
Swell Vis
km
Cloud Weather Temp
°C
Press
hPa
Rain since
9am
mm
Dir  Spd
kts
Gust
kts
Height
m
Period
s
Dir
07/12:30pm SSW 5 8 - - - - - - - 11.6 1030.8 0.8
07/12:00pm WSW 4 7 - - - - - - Recent precip. 11.5 1031.2 0.8
07/11:30am SW 5 6 - - - - - - - 11.2 1031.5 0.8
07/11:00am S 5 6 - - - - - - - 11.1 1031.6 0.6
07/10:30am SW 4 7 - - - - - - - 11.2 1031.6 0.6
07/10:00am WSW 5 7 - - - - - - - 11.0 1031.4 0.2
07/09:30am WNW 4 6 - - - - - - - 10.9 1031.1 0.2
07/09:00am WNW 4 5 - - - - - - Recent precip. 10.5 1030.8 6.0
07/08:30am W 5 9 - - - - - - - 10.5 1030.7 5.8
07/08:00am SW 4 7 - - - - - - - 10.4 1030.4 5.0
07/07:30am WSW 8 13 - - - - - - - 10.3 1030.0 1.4
07/07:00am W 8 11 - - - - - - - 10.2 1029.5 0.8
07/06:30am W 7 11 - - - - - - - 10.1 1029.1 0.8
07/06:00am W 7 10 - - - - - - Recent precip. 10.3 1029.0 0.6
07/05:30am W 7 11 - - - - - - - 10.3 1028.7 0.6
07/05:00am W 8 12 - - - - - - - 10.5 1028.6 0.2
07/04:30am W 7 13 - - - - - - - 10.5 1028.5 0.2
07/04:00am W 8 14 - - - - - - - 10.3 1028.4 0.2
07/03:30am WSW 7 12 - - - - - - - 10.6 1028.5 0.0
07/03:00am W 7 12 - - - - - - - 10.5 1028.6 0.0
07/02:30am W 7 11 - - - - - - - 10.6 1028.7 0.0
07/02:00am W 7 11 - - - - - - - 10.6 1028.6 0.0
07/01:30am WSW 8 13 - - - - - - - 10.7 1028.6 0.0
07/01:00am WSW 8 14 - - - - - - - 10.6 1028.5 0.0
07/12:30am WSW 7 13 - - - - - - - 10.8 1028.6 0.0
07/12:00am WSW 8 16 - - - - - - - 10.7 1028.4 0.0
 
Date/Time
EST
Wind Sea
Height
m
Swell Vis
km
Cloud Weather Temp
°C
Press
hPa
Rain since
9am
mm
Dir  Spd
kts
Gust
kts
Height
m
Period
s
Dir
06/11:30pm WSW 10 15 - - - - - - - 11.3 1028.4 0.0
06/11:00pm WSW 10 17 - - - - - - - 11.7 1028.2 0.0
06/10:30pm WSW 9 17 - - - - - - - 12.0 1027.8 0.0
06/10:00pm WSW 9 17 - - - - - - - 12.1 1027.8 0.0
06/09:30pm WSW 8 13 - - - - - - - 12.0 1027.8 0.0
06/09:00pm WSW 8 16 - - - - - - - 12.2 1027.9 0.0
06/08:30pm WSW 8 14 - - - - - - - 12.2 1028.2 0.0
06/08:00pm W 9 15 - - - - - - - 12.2 1028.1 0.0
06/07:30pm WSW 8 17 - - - - - - - 11.9 1028.0 0.0
06/07:00pm W 7 13 - - - - - - - 12.0 1027.7 0.0
06/06:30pm W 9 18 - - - - - - - 12.1 1027.6 0.0
06/06:00pm W 7 12 - - - - - - - 12.2 1027.4 0.0
06/05:30pm W 8 14 - - - - - - - 12.2 1027.3 0.0
06/05:00pm W 8 13 - - - - - - - 12.3 1027.0 0.0
06/04:30pm WSW 9 13 - - - - - - - 12.4 1026.8 0.0
06/04:00pm WSW 10 19 - - - - - - - 12.6 1026.6 0.0
06/03:30pm WSW 10 19 - - - - - - - 12.7 1026.6 0.0
06/03:00pm WSW 7 12 - - - - - - - 12.8 1026.7 0.0
06/02:30pm WSW 9 16 - - - - - - - 12.6 1026.7 0.0
06/02:00pm W 9 20 - - - - - - - 12.7 1026.6 0.0
06/01:30pm WSW 12 23 - - - - - - - 12.8 1026.6 0.0
06/01:00pm WSW 9 16 - - - - - - - 12.8 1026.5 0.0
06/12:30pm W 10 18 - - - - - - - 12.9 1026.8 0.0
06/12:00pm WSW 10 16 - - - - - - - 12.8 1027.0 0.0
06/11:30am WSW 12 21 - - - - - - - 12.6 1027.3 0.0
06/11:00am WSW 9 17 - - - - - - - 12.1 1027.7 0.0
06/10:30am WSW 11 21 - - - - - - - 12.1 1027.8 0.0
06/10:00am WSW 10 17 - - - - - - - 11.8 1027.8 0.0
06/09:30am W 10 17 - - - - - - - 11.3 1027.9 0.0
06/09:00am WSW 7 13 - - - - - - - 11.1 1027.7 0.2
06/08:30am W 8 13 - - - - - - - 10.8 1027.6 0.2
06/08:00am W 8 15 - - - - - - - 10.6 1027.4 0.2
06/07:30am W 8 13 - - - - - - - 10.4 1027.0 0.2
06/07:00am W 8 13 - - - - - - - 10.4 1026.9 0.2
06/06:30am W 8 14 - - - - - - - 10.3 1026.3 0.2
06/06:00am WSW 7 19 - - - - - - - 9.9 1026.1 0.2
06/05:30am WSW 8 16 - - - - - - - 10.1 1025.9 0.2
06/05:00am WSW 8 13 - - - - - - - 10.3 1025.4 0.2
06/04:30am WSW 7 15 - - - - - - - 9.9 1025.3 0.2
06/04:00am W 10 16 - - - - - - - 10.1 1025.3 0.2
06/03:30am WSW 8 14 - - - - - - - 10.5 1025.4 0.2
06/03:00am WSW 9 16 - - - - - - - 10.6 1025.2 0.2
06/02:30am WSW 10 16 - - - - - - - 10.6 1025.1 0.2
06/02:00am W 10 16 - - - - - - - 10.5 1025.2 0.2
06/01:30am W 10 21 - - - - - - - 10.4 1025.2 0.2
06/01:00am WSW 9 15 - - - - - - - 10.6 1025.0 0.2
06/12:30am W 8 16 - - - - - - - 10.5 1025.1 0.2
06/12:00am W 8 14 - - - - - - - 10.4 1025.2 0.2
 
Date/Time
EST
Wind Sea
Height
m
Swell Vis
km
Cloud Weather Temp
°C
Press
hPa
Rain since
9am
mm
Dir  Spd
kts
Gust
kts
Height
m
Period
s
Dir
05/11:30pm W 8 15 - - - - - - - 10.7 1025.3 0.2
05/11:00pm W 9 15 - - - - - - - 10.9 1025.3 0.2
05/10:30pm WSW 9 15 - - - - - - - 11.3 1025.1 0.2
05/10:00pm WSW 8 16 - - - - - - - 11.4 1024.6 0.2
05/09:30pm WSW 11 21 - - - - - - - 11.6 1024.4 0.2
05/09:00pm WSW 10 19 - - - - - - - 11.9 1024.3 0.2
05/08:30pm SW 9 17 - - - - - - - 12.0 1024.1 0.2
05/08:00pm SW 9 18 - - - - - - - 11.8 1023.9 0.2
05/07:30pm SW 9 17 - - - - - - - 11.7 1023.7 0.2
05/07:00pm SW 10 19 - - - - - - - 11.7 1023.5 0.2
05/06:30pm WSW 11 18 - - - - - - - 11.7 1023.1 0.2
05/06:00pm SW 9 17 - - - - - - - 11.7 1022.8 0.2
05/05:30pm SW 9 15 - - - - - - - 11.7 1022.6 0.2
05/05:00pm SW 11 17 - - - - - - - 11.9 1022.2 0.2
05/04:30pm WSW 11 20 - - - - - - - 12.2 1021.9 0.2
05/04:00pm WSW 11 20 - - - - - - - 12.2 1022.0 0.2
05/03:30pm WSW 11 19 - - - - - - - 12.5 1022.0 0.2
05/03:00pm WSW 11 18 - - - - - - - 12.6 1022.0 0.2
05/02:30pm WSW 12 24 - - - - - - - 12.8 1021.7 0.2
05/02:00pm WSW 13 23 - - - - - - - 12.2 1021.4 0.2
05/01:30pm WSW 11 19 - - - - - - - 12.4 1021.5 0.2
05/01:00pm WSW 13 24 - - - - - - - 12.7 1021.4 0.2
05/12:35pm WSW 15 27 - - - - - - - 12.9 1021.4 0.2
05/12:30pm WSW 13 26 - - - - - - - 13.1 1021.4 0.2
05/12:00pm WSW 12 20 - - - - - - - 12.6 1021.6 0.2
05/11:30am WSW 12 20 - - - - - - - 12.4 1021.6 0.2
05/11:00am WSW 13 23 - - - - - - - 12.1 1021.8 0.2
05/10:30am WSW 12 19 - - - - - - - 11.5 1021.6 0.0
05/10:00am WSW 10 20 - - - - - - - 10.6 1021.6 0.0
05/09:30am WSW 9 17 - - - - - - - 10.5 1021.3 0.0
05/09:00am WSW 10 16 - - - - - - Recent precip. 10.1 1020.9 4.0
05/08:30am WSW 10 16 - - - - - - - 10.0 1020.7 4.0
05/08:00am WSW 11 19 - - - - - - - 10.2 1020.3 3.8
05/07:30am WSW 10 17 - - - - - - - 10.3 1019.9 3.8
05/07:00am WSW 11 20 - - - - - - - 10.4 1019.6 3.6
05/06:30am WSW 10 16 - - - - - - - 10.4 1019.3 3.4
05/06:00am WSW 9 18 - - - - - - Rain 10.3 1018.9 3.0
05/05:30am WSW 10 17 - - - - - - - 10.8 1018.6 1.4
05/05:00am WSW 10 19 - - - - - - - 10.8 1018.3 1.2
05/04:30am WSW 10 16 - - - - - - - 11.0 1018.1 0.8
05/04:00am WSW 10 17 - - - - - - - 11.4 1018.1 0.6
05/03:30am WSW 12 23 - - - - - - - 11.2 1017.9 0.6
05/03:00am SW 11 24 - - - - - - Recent precip. 11.5 1018.0 0.4
05/02:30am WSW 12 23 - - - - - - - 11.7 1018.0 0.2
05/02:00am WSW 14 23 - - - - - - - 11.7 1017.9 0.2
05/01:54am WSW 15 25 - - - - - - - 11.5 1017.9 0.2
05/01:30am WSW 13 21 - - - - - - - 11.3 1018.0 0.2
05/01:00am WSW 15 27 - - - - - - - 12.3 1017.6 0.0
05/12:56am WSW 15 25 - - - - - - - 12.3 1017.6 0.0
05/12:30am WSW 13 25 - - - - - - - 12.1 1017.7 0.0
05/12:00am WSW 15 24 - - - - - - - 12.3 1017.4 0.0
 
Date/Time
EST
Wind Sea
Height
m
Swell Vis
km
Cloud Weather Temp
°C
Press
hPa
Rain since
9am
mm
Dir  Spd
kts
Gust
kts
Height
m
Period
s
Dir
04/11:31pm WSW 15 25 - - - - - - - 12.5 1017.6 0.0
04/11:30pm WSW 14 25 - - - - - - - 12.5 1017.5 0.0
04/11:00pm WSW 12 21 - - - - - - - 12.3 1017.2 0.0
04/10:30pm WSW 13 23 - - - - - - - 12.4 1017.1 0.0
04/10:16pm WSW 15 29 - - - - - - - 12.5 1017.2 0.0
04/10:00pm WSW 13 25 - - - - - - - 12.5 1017.1 0.0
04/09:30pm WSW 13 27 - - - - - - - 12.6 1016.9 0.0
04/09:11pm WSW 15 26 - - - - - - - 12.7 1016.9 0.0
04/09:00pm WSW 13 19 - - - - - - - 12.6 1017.0 0.0
04/08:30pm WSW 13 25 - - - - - - - 12.6 1016.7 0.0
04/08:22pm WSW 15 26 - - - - - - - 12.6 1016.7 0.0
04/08:00pm WSW 14 25 - - - - - - - 12.5 1016.7 0.0
04/07:30pm WSW 15 26 - - - - - - - 12.5 1016.5 0.0
04/07:24pm WSW 15 30 - - - - - - - 12.5 1016.4 0.0
04/07:00pm WSW 13 22 - - - - - - - 12.3 1016.5 0.0
04/06:30pm WSW 12 20 - - - - - - - 12.2 1016.5 0.0
04/06:00pm W 10 22 - - - - - - - 11.6 1016.6 0.0
04/05:30pm WSW 10 18 - - - - - - - 11.2 1016.7 0.0
04/05:00pm W 11 21 - - - - - - - 11.3 1016.5 0.0
04/04:30pm WSW 11 20 - - - - - - - 11.9 1016.3 0.0
04/04:00pm WSW 10 17 - - - - - - - 12.1 1016.6 0.0
04/03:30pm WSW 11 17 - - - - - - - 11.8 1016.7 0.0
04/03:00pm WSW 11 21 - - - - - - - 12.8 1016.5 0.0
04/02:30pm WSW 10 18 - - - - - - - 13.0 1016.4 0.0
04/02:00pm WSW 11 19 - - - - - - - 12.5 1016.6 0.0
04/01:30pm WSW 10 17 - - - - - - - 12.4 1017.1 0.0
04/01:00pm WSW 11 18 - - - - - - - 12.0 1017.5 0.0

Other formats

Comma delimited format used in spreadsheet applications
http://www.bom.gov.au/fwo/IDV60701/IDV60701.94935.axf

JavaScript Object Notation format (JSON) in row-major order
http://www.bom.gov.au/fwo/IDV60701/IDV60701.94935.json

Data quality

Most of these data are generated automatically and are frequently updated. Quality checks on data are not normally performed. It is possible for incorrect values to appear. Refer to information at About Latest Weather Observations and please check the disclaimer before using these data.